Andesborg — PCLC — position and weather

sailwx.info

Track history (hours):
 
Tides and Currents Weather Stations Pressure Air Temp Water Temp Dewpoint Dewpoint Depression Visibility Wind Speed Wind Dir Waves Ship Positions

Andesborg

Last reported at 2017-Nov-25 01:18 UTC. Time now 2017-Dec-14 04:36 UTC.
Position S 05°12' E 010°53'.
Warning: this ship's position is 19 days out of date.

Length 142 m; draft 5.8 m.

Type: Ship. MMSI: 246797000.

Date/timePositionNaut miles runAvg speedWind from/ knotsBaromVisibWave heightAir tempDewpointWater temp
2017-Nov-25 01:18S 05°12' E 010°53'413.6
2017-Nov-25 01:00S 05°15' E 010°55'713.6
2017-Nov-25 00:29S 05°20' E 010°60'713.5
2017-Nov-25 00:00S 05°25' E 011°04'713.5
2017-Nov-24 23:30S 05°31' E 011°09'3 0.1
2017-Nov-23 03:15S 05°32' E 011°11'311.7
2017-Nov-23 02:58S 05°29' E 011°10'511.2
2017-Nov-23 02:30S 05°24' E 011°08'611.4
2017-Nov-23 02:00S 05°20' E 011°04'611.3
2017-Nov-23 01:30S 05°16' E 011°00'611.6
2017-Nov-23 01:00S 05°11' E 010°57'611.6
2017-Nov-23 00:30S 05°07' E 010°53'  
Track history (hours):
 
Tides and Currents Weather Stations Pressure Air Temp Water Temp Dewpoint Dewpoint Depression Visibility Wind Speed Wind Dir Waves Ship Positions

Andesborg

Last reported at 2017-Nov-25 01:18 UTC. Time now 2017-Dec-14 04:36 UTC.
Position S 05°12' E 010°53'.
Warning: this ship's position is 19 days out of date.

Length 142 m; draft 5.8 m.

Type: Ship. MMSI: 246797000.

Date/timePositionNaut miles runAvg speedWind from/ knotsBaromVisibWave heightAir tempDewpointWater temp
2017-Nov-25 01:18S 05°12' E 010°53'413.6
2017-Nov-25 01:00S 05°15' E 010°55'713.6
2017-Nov-25 00:29S 05°20' E 010°60'713.5
2017-Nov-25 00:00S 05°25' E 011°04'713.5
2017-Nov-24 23:30S 05°31' E 011°09'3 0.1
2017-Nov-23 03:15S 05°32' E 011°11'311.7
2017-Nov-23 02:58S 05°29' E 011°10'511.2
2017-Nov-23 02:30S 05°24' E 011°08'611.4
2017-Nov-23 02:00S 05°20' E 011°04'611.3
2017-Nov-23 01:30S 05°16' E 011°00'611.6
2017-Nov-23 01:00S 05°11' E 010°57'611.6
2017-Nov-23 00:30S 05°07' E 010°53'  

Dump ship's entire track history